sensor_id;sensor_type;location;lat;lon;timestamp;temperature;humidity
18160;DHT22;9205;52.032;4.314;2024-03-25T00:02:14;6.80;99.90
18160;DHT22;9205;52.032;4.314;2024-03-25T00:04:43;6.80;99.90
18160;DHT22;9205;52.032;4.314;2024-03-25T00:07:10;6.80;99.90
18160;DHT22;9205;52.032;4.314;2024-03-25T00:09:37;6.70;99.90
18160;DHT22;9205;52.032;4.314;2024-03-25T00:12:03;6.80;99.90
18160;DHT22;9205;52.032;4.314;2024-03-25T00:14:30;6.70;99.90
18160;DHT22;9205;52.032;4.314;2024-03-25T00:16:57;6.70;99.90
18160;DHT22;9205;52.032;4.314;2024-03-25T00:19:24;6.70;99.90
18160;DHT22;9205;52.032;4.314;2024-03-25T00:21:52;6.70;1.00
18160;DHT22;9205;52.032;4.314;2024-03-25T00:24:19;6.50;1.00
18160;DHT22;9205;52.032;4.314;2024-03-25T00:26:46;6.50;1.00
18160;DHT22;9205;52.032;4.314;2024-03-25T00:29:13;6.50;1.00
18160;DHT22;9205;52.032;4.314;2024-03-25T00:31:40;6.40;1.00
18160;DHT22;9205;52.032;4.314;2024-03-25T00:34:07;6.40;1.00
18160;DHT22;9205;52.032;4.314;2024-03-25T00:36:33;6.40;1.00
18160;DHT22;9205;52.032;4.314;2024-03-25T00:39:02;6.40;1.00
18160;DHT22;9205;52.032;4.314;2024-03-25T00:41:28;6.50;1.00
18160;DHT22;9205;52.032;4.314;2024-03-25T00:43:55;6.40;1.00
18160;DHT22;9205;52.032;4.314;2024-03-25T00:46:21;6.30;1.00
18160;DHT22;9205;52.032;4.314;2024-03-25T00:48:48;6.40;1.00
18160;DHT22;9205;52.032;4.314;2024-03-25T00:51:15;6.20;1.00
18160;DHT22;9205;52.032;4.314;2024-03-25T00:53:42;6.30;1.00
18160;DHT22;9205;52.032;4.314;2024-03-25T00:56:10;6.20;1.00
18160;DHT22;9205;52.032;4.314;2024-03-25T00:58:37;6.20;1.00
18160;DHT22;9205;52.032;4.314;2024-03-25T01:01:04;6.20;1.00
18160;DHT22;9205;52.032;4.314;2024-03-25T01:03:31;6.20;1.00
18160;DHT22;9205;52.032;4.314;2024-03-25T01:05:57;6.10;39.70
18160;DHT22;9205;52.032;4.314;2024-03-25T01:08:24;6.20;99.90
18160;DHT22;9205;52.032;4.314;2024-03-25T01:10:50;6.20;99.90
18160;DHT22;9205;52.032;4.314;2024-03-25T01:13:19;6.10;99.90
18160;DHT22;9205;52.032;4.314;2024-03-25T01:15:45;6.10;99.90
18160;DHT22;9205;52.032;4.314;2024-03-25T01:18:13;6.20;99.90
18160;DHT22;9205;52.032;4.314;2024-03-25T01:20:39;6.10;99.90
18160;DHT22;9205;52.032;4.314;2024-03-25T01:23:06;6.10;99.90
18160;DHT22;9205;52.032;4.314;2024-03-25T01:25:32;5.90;99.90
18160;DHT22;9205;52.032;4.314;2024-03-25T01:28:00;6.00;99.90
18160;DHT22;9205;52.032;4.314;2024-03-25T01:30:28;6.00;99.90
18160;DHT22;9205;52.032;4.314;2024-03-25T01:32:56;6.00;1.00
18160;DHT22;9205;52.032;4.314;2024-03-25T01:35:22;5.90;1.00
18160;DHT22;9205;52.032;4.314;2024-03-25T01:37:49;6.00;1.00
18160;DHT22;9205;52.032;4.314;2024-03-25T01:40:16;6.10;1.00
18160;DHT22;9205;52.032;4.314;2024-03-25T01:42:54;6.10;1.00
18160;DHT22;9205;52.032;4.314;2024-03-25T01:45:22;6.10;1.00
18160;DHT22;9205;52.032;4.314;2024-03-25T01:47:51;6.00;1.00
18160;DHT22;9205;52.032;4.314;2024-03-25T01:50:18;6.00;1.00
18160;DHT22;9205;52.032;4.314;2024-03-25T01:52:46;6.20;1.00
18160;DHT22;9205;52.032;4.314;2024-03-25T01:55:15;6.20;1.00
18160;DHT22;9205;52.032;4.314;2024-03-25T01:57:45;6.20;1.00
18160;DHT22;9205;52.032;4.314;2024-03-25T02:00:12;6.40;1.00
18160;DHT22;9205;52.032;4.314;2024-03-25T02:02:51;6.40;1.00
18160;DHT22;9205;52.032;4.314;2024-03-25T02:05:20;6.50;1.00
18160;DHT22;9205;52.032;4.314;2024-03-25T02:07:48;6.50;1.00
18160;DHT22;9205;52.032;4.314;2024-03-25T02:10:15;6.40;1.00
18160;DHT22;9205;52.032;4.314;2024-03-25T02:12:44;6.60;1.00
18160;DHT22;9205;52.032;4.314;2024-03-25T02:15:13;6.40;1.00
18160;DHT22;9205;52.032;4.314;2024-03-25T02:17:41;6.40;1.00
18160;DHT22;9205;52.032;4.314;2024-03-25T02:20:10;6.30;1.00
18160;DHT22;9205;52.032;4.314;2024-03-25T02:22:42;6.30;1.00
18160;DHT22;9205;52.032;4.314;2024-03-25T02:25:10;6.30;1.00
18160;DHT22;9205;52.032;4.314;2024-03-25T02:27:39;6.20;1.00
18160;DHT22;9205;52.032;4.314;2024-03-25T02:30:06;6.20;1.00
18160;DHT22;9205;52.032;4.314;2024-03-25T02:32:36;6.10;1.00
18160;DHT22;9205;52.032;4.314;2024-03-25T02:35:05;6.00;1.00
18160;DHT22;9205;52.032;4.314;2024-03-25T02:37:36;5.90;1.00
18160;DHT22;9205;52.032;4.314;2024-03-25T02:40:04;5.90;1.00
18160;DHT22;9205;52.032;4.314;2024-03-25T02:42:35;5.80;1.00
18160;DHT22;9205;52.032;4.314;2024-03-25T02:45:04;5.80;1.00
18160;DHT22;9205;52.032;4.314;2024-03-25T02:47:32;5.80;1.00
18160;DHT22;9205;52.032;4.314;2024-03-25T02:49:58;5.80;1.00
18160;DHT22;9205;52.032;4.314;2024-03-25T02:52:26;5.60;1.00
18160;DHT22;9205;52.032;4.314;2024-03-25T02:54:52;5.60;1.00
18160;DHT22;9205;52.032;4.314;2024-03-25T02:57:19;5.70;1.00
18160;DHT22;9205;52.032;4.314;2024-03-25T02:59:46;5.60;1.00
18160;DHT22;9205;52.032;4.314;2024-03-25T03:02:14;5.40;1.00
18160;DHT22;9205;52.032;4.314;2024-03-25T03:04:40;5.30;1.00
18160;DHT22;9205;52.032;4.314;2024-03-25T03:07:08;5.40;1.00
18160;DHT22;9205;52.032;4.314;2024-03-25T03:09:34;5.40;20.90
18160;DHT22;9205;52.032;4.314;2024-03-25T03:12:01;5.40;77.00
18160;DHT22;9205;52.032;4.314;2024-03-25T03:14:27;5.30;99.90
18160;DHT22;9205;52.032;4.314;2024-03-25T03:16:54;5.10;99.90
18160;DHT22;9205;52.032;4.314;2024-03-25T03:19:25;5.30;99.90
18160;DHT22;9205;52.032;4.314;2024-03-25T03:21:52;5.20;99.90
18160;DHT22;9205;52.032;4.314;2024-03-25T03:24:19;5.10;99.90
18160;DHT22;9205;52.032;4.314;2024-03-25T03:26:47;5.20;99.90
18160;DHT22;9205;52.032;4.314;2024-03-25T03:29:13;5.10;99.90
18160;DHT22;9205;52.032;4.314;2024-03-25T03:31:40;5.10;99.90
18160;DHT22;9205;52.032;4.314;2024-03-25T03:34:06;5.10;99.90
18160;DHT22;9205;52.032;4.314;2024-03-25T03:36:35;4.90;99.90
18160;DHT22;9205;52.032;4.314;2024-03-25T03:39:01;4.90;99.90
18160;DHT22;9205;52.032;4.314;2024-03-25T03:41:29;4.90;99.90
18160;DHT22;9205;52.032;4.314;2024-03-25T03:43:55;4.90;99.90
18160;DHT22;9205;52.032;4.314;2024-03-25T03:46:23;4.80;99.90
18160;DHT22;9205;52.032;4.314;2024-03-25T03:48:49;4.90;99.90
18160;DHT22;9205;52.032;4.314;2024-03-25T03:51:16;4.80;99.90
18160;DHT22;9205;52.032;4.314;2024-03-25T03:53:44;4.90;1.00
18160;DHT22;9205;52.032;4.314;2024-03-25T03:56:11;5.00;1.00
18160;DHT22;9205;52.032;4.314;2024-03-25T03:58:37;4.80;1.00
18160;DHT22;9205;52.032;4.314;2024-03-25T04:01:04;4.80;1.00
18160;DHT22;9205;52.032;4.314;2024-03-25T04:03:40;5.00;1.00
18160;DHT22;9205;52.032;4.314;2024-03-25T04:06:09;4.90;1.00
18160;DHT22;9205;52.032;4.314;2024-03-25T04:08:36;4.90;1.00
18160;DHT22;9205;52.032;4.314;2024-03-25T04:11:05;4.80;1.00
18160;DHT22;9205;52.032;4.314;2024-03-25T04:13:32;4.80;1.00
18160;DHT22;9205;52.032;4.314;2024-03-25T04:16:04;4.80;1.00
18160;DHT22;9205;52.032;4.314;2024-03-25T04:18:32;4.70;1.00
18160;DHT22;9205;52.032;4.314;2024-03-25T04:21:00;4.90;1.00
18160;DHT22;9205;52.032;4.314;2024-03-25T04:23:26;4.70;1.00
18160;DHT22;9205;52.032;4.314;2024-03-25T04:25:54;4.60;1.00
18160;DHT22;9205;52.032;4.314;2024-03-25T04:28:21;4.80;1.00
18160;DHT22;9205;52.032;4.314;2024-03-25T04:30:53;4.60;1.00
18160;DHT22;9205;52.032;4.314;2024-03-25T04:33:19;4.50;1.00
18160;DHT22;9205;52.032;4.314;2024-03-25T04:35:47;4.70;1.00
18160;DHT22;9205;52.032;4.314;2024-03-25T04:38:16;4.70;1.00
18160;DHT22;9205;52.032;4.314;2024-03-25T04:40:42;4.50;1.00
18160;DHT22;9205;52.032;4.314;2024-03-25T04:43:09;4.60;1.00
18160;DHT22;9205;52.032;4.314;2024-03-25T04:45:36;4.70;1.00
18160;DHT22;9205;52.032;4.314;2024-03-25T04:48:03;4.60;1.00
18160;DHT22;9205;52.032;4.314;2024-03-25T04:50:30;4.40;1.00
18160;DHT22;9205;52.032;4.314;2024-03-25T04:52:57;4.50;1.00
18160;DHT22;9205;52.032;4.314;2024-03-25T04:55:25;4.30;1.00
18160;DHT22;9205;52.032;4.314;2024-03-25T04:57:51;4.50;1.00
18160;DHT22;9205;52.032;4.314;2024-03-25T05:00:18;4.50;1.00
18160;DHT22;9205;52.032;4.314;2024-03-25T05:02:47;4.40;1.00
18160;DHT22;9205;52.032;4.314;2024-03-25T05:05:14;4.30;1.00
18160;DHT22;9205;52.032;4.314;2024-03-25T05:07:40;4.50;1.00
18160;DHT22;9205;52.032;4.314;2024-03-25T05:10:07;4.20;1.00
18160;DHT22;9205;52.032;4.314;2024-03-25T05:12:33;4.40;1.00
18160;DHT22;9205;52.032;4.314;2024-03-25T05:14:59;4.40;1.00
18160;DHT22;9205;52.032;4.314;2024-03-25T05:17:26;4.30;1.00
18160;DHT22;9205;52.032;4.314;2024-03-25T05:19:53;4.30;1.00
18160;DHT22;9205;52.032;4.314;2024-03-25T05:22:20;4.50;1.00
18160;DHT22;9205;52.032;4.314;2024-03-25T05:24:46;4.50;1.00
18160;DHT22;9205;52.032;4.314;2024-03-25T05:27:15;4.60;1.00
18160;DHT22;9205;52.032;4.314;2024-03-25T05:29:41;4.50;1.00
18160;DHT22;9205;52.032;4.314;2024-03-25T05:32:07;4.70;1.00
18160;DHT22;9205;52.032;4.314;2024-03-25T05:34:34;4.80;1.00
18160;DHT22;9205;52.032;4.314;2024-03-25T05:37:01;4.70;1.00
18160;DHT22;9205;52.032;4.314;2024-03-25T05:39:28;4.80;1.00
18160;DHT22;9205;52.032;4.314;2024-03-25T05:41:54;4.60;1.00
18160;DHT22;9205;52.032;4.314;2024-03-25T05:44:22;4.80;1.00
18160;DHT22;9205;52.032;4.314;2024-03-25T05:46:48;4.80;1.00
18160;DHT22;9205;52.032;4.314;2024-03-25T05:49:15;4.70;5.90
18160;DHT22;9205;52.032;4.314;2024-03-25T05:51:41;4.60;11.40
18160;DHT22;9205;52.032;4.314;2024-03-25T05:54:09;4.70;27.30
18160;DHT22;9205;52.032;4.314;2024-03-25T05:56:35;4.90;80.40
18160;DHT22;9205;52.032;4.314;2024-03-25T05:59:01;4.80;98.70
18160;DHT22;9205;52.032;4.314;2024-03-25T06:01:28;4.80;99.90
18160;DHT22;9205;52.032;4.314;2024-03-25T06:03:54;5.00;99.90
18160;DHT22;9205;52.032;4.314;2024-03-25T06:06:20;4.80;99.90
18160;DHT22;9205;52.032;4.314;2024-03-25T06:08:47;5.00;99.90
18160;DHT22;9205;52.032;4.314;2024-03-25T06:11:16;5.00;99.90
18160;DHT22;9205;52.032;4.314;2024-03-25T06:13:45;4.90;99.90
18160;DHT22;9205;52.032;4.314;2024-03-25T06:16:12;4.80;99.90
18160;DHT22;9205;52.032;4.314;2024-03-25T06:18:38;5.00;99.90
18160;DHT22;9205;52.032;4.314;2024-03-25T06:21:04;5.10;99.90
18160;DHT22;9205;52.032;4.314;2024-03-25T06:23:31;4.90;99.90
18160;DHT22;9205;52.032;4.314;2024-03-25T06:25:57;5.00;99.90
18160;DHT22;9205;52.032;4.314;2024-03-25T06:28:25;5.00;99.90
18160;DHT22;9205;52.032;4.314;2024-03-25T06:30:51;5.10;99.90
18160;DHT22;9205;52.032;4.314;2024-03-25T06:33:36;5.20;99.90
18160;DHT22;9205;52.032;4.314;2024-03-25T06:36:21;5.20;99.90
18160;DHT22;9205;52.032;4.314;2024-03-25T06:38:48;5.10;99.90
18160;DHT22;9205;52.032;4.314;2024-03-25T06:41:15;5.30;99.90
18160;DHT22;9205;52.032;4.314;2024-03-25T06:43:42;5.30;99.90
18160;DHT22;9205;52.032;4.314;2024-03-25T06:46:09;5.10;99.90
18160;DHT22;9205;52.032;4.314;2024-03-25T06:48:35;5.20;99.90
18160;DHT22;9205;52.032;4.314;2024-03-25T06:51:04;5.40;99.90
18160;DHT22;9205;52.032;4.314;2024-03-25T06:53:31;5.20;99.90
18160;DHT22;9205;52.032;4.314;2024-03-25T06:55:58;5.40;99.90
18160;DHT22;9205;52.032;4.314;2024-03-25T06:58:25;5.40;99.90
18160;DHT22;9205;52.032;4.314;2024-03-25T07:00:55;5.70;99.90
18160;DHT22;9205;52.032;4.314;2024-03-25T07:03:23;5.80;99.90
18160;DHT22;9205;52.032;4.314;2024-03-25T07:05:51;5.60;99.90
18160;DHT22;9205;52.032;4.314;2024-03-25T07:08:18;5.90;99.90
18160;DHT22;9205;52.032;4.314;2024-03-25T07:10:45;5.80;99.90
18160;DHT22;9205;52.032;4.314;2024-03-25T07:13:11;6.00;99.90
18160;DHT22;9205;52.032;4.314;2024-03-25T07:15:38;5.90;99.90
18160;DHT22;9205;52.032;4.314;2024-03-25T07:18:07;6.10;99.90
18160;DHT22;9205;52.032;4.314;2024-03-25T07:20:33;6.00;99.90
18160;DHT22;9205;52.032;4.314;2024-03-25T07:22:59;6.30;99.90
18160;DHT22;9205;52.032;4.314;2024-03-25T07:25:26;6.10;99.90
18160;DHT22;9205;52.032;4.314;2024-03-25T07:27:52;6.20;99.90
18160;DHT22;9205;52.032;4.314;2024-03-25T07:30:19;6.30;99.90
18160;DHT22;9205;52.032;4.314;2024-03-25T07:32:45;6.50;99.90
18160;DHT22;9205;52.032;4.314;2024-03-25T07:35:12;6.40;99.90
18160;DHT22;9205;52.032;4.314;2024-03-25T07:37:39;6.50;99.90
18160;DHT22;9205;52.032;4.314;2024-03-25T07:40:07;6.70;99.90
18160;DHT22;9205;52.032;4.314;2024-03-25T07:42:35;6.50;99.90
18160;DHT22;9205;52.032;4.314;2024-03-25T07:45:02;6.70;99.90
18160;DHT22;9205;52.032;4.314;2024-03-25T07:47:28;6.90;99.90
18160;DHT22;9205;52.032;4.314;2024-03-25T07:49:54;6.80;99.90
18160;DHT22;9205;52.032;4.314;2024-03-25T07:52:22;6.80;99.90
18160;DHT22;9205;52.032;4.314;2024-03-25T07:54:48;6.90;99.90
18160;DHT22;9205;52.032;4.314;2024-03-25T07:57:15;7.20;99.90
18160;DHT22;9205;52.032;4.314;2024-03-25T07:59:42;7.10;99.90
18160;DHT22;9205;52.032;4.314;2024-03-25T08:02:08;7.30;99.90
18160;DHT22;9205;52.032;4.314;2024-03-25T08:04:34;7.10;99.90
18160;DHT22;9205;52.032;4.314;2024-03-25T08:07:02;7.10;99.90
18160;DHT22;9205;52.032;4.314;2024-03-25T08:09:30;7.30;99.90
18160;DHT22;9205;52.032;4.314;2024-03-25T08:11:57;7.30;99.90
18160;DHT22;9205;52.032;4.314;2024-03-25T08:14:23;7.40;99.90
18160;DHT22;9205;52.032;4.314;2024-03-25T08:16:50;7.50;99.90
18160;DHT22;9205;52.032;4.314;2024-03-25T08:19:17;7.40;99.90
18160;DHT22;9205;52.032;4.314;2024-03-25T08:21:43;7.60;99.90
18160;DHT22;9205;52.032;4.314;2024-03-25T08:24:09;7.70;99.90
18160;DHT22;9205;52.032;4.314;2024-03-25T08:26:37;7.80;99.90
18160;DHT22;9205;52.032;4.314;2024-03-25T08:29:03;8.00;99.90
18160;DHT22;9205;52.032;4.314;2024-03-25T08:31:30;8.00;99.90
18160;DHT22;9205;52.032;4.314;2024-03-25T08:33:56;7.90;97.90
18160;DHT22;9205;52.032;4.314;2024-03-25T08:36:22;7.90;1.00
18160;DHT22;9205;52.032;4.314;2024-03-25T08:38:49;8.00;1.00
18160;DHT22;9205;52.032;4.314;2024-03-25T08:41:16;8.10;1.00
18160;DHT22;9205;52.032;4.314;2024-03-25T08:43:43;8.10;1.00
18160;DHT22;9205;52.032;4.314;2024-03-25T08:46:10;8.20;1.00
18160;DHT22;9205;52.032;4.314;2024-03-25T08:48:36;8.30;1.00
18160;DHT22;9205;52.032;4.314;2024-03-25T08:51:03;8.40;99.90
18160;DHT22;9205;52.032;4.314;2024-03-25T08:53:32;8.30;99.90
18160;DHT22;9205;52.032;4.314;2024-03-25T08:55:58;8.40;99.90
18160;DHT22;9205;52.032;4.314;2024-03-25T08:58:25;8.30;1.00
18160;DHT22;9205;52.032;4.314;2024-03-25T09:00:52;8.30;1.00
18160;DHT22;9205;52.032;4.314;2024-03-25T09:03:19;8.60;1.00
18160;DHT22;9205;52.032;4.314;2024-03-25T09:05:47;8.60;1.00
18160;DHT22;9205;52.032;4.314;2024-03-25T09:08:13;8.80;1.00
18160;DHT22;9205;52.032;4.314;2024-03-25T09:10:42;8.70;1.00
18160;DHT22;9205;52.032;4.314;2024-03-25T09:13:27;8.60;1.00
18160;DHT22;9205;52.032;4.314;2024-03-25T09:15:55;8.60;1.00
18160;DHT22;9205;52.032;4.314;2024-03-25T09:18:22;8.50;1.00
18160;DHT22;9205;52.032;4.314;2024-03-25T09:20:48;8.50;1.00
18160;DHT22;9205;52.032;4.314;2024-03-25T09:23:15;8.60;93.80
18160;DHT22;9205;52.032;4.314;2024-03-25T09:25:51;8.40;34.60
18160;DHT22;9205;52.032;4.314;2024-03-25T09:28:18;8.50;1.00
18160;DHT22;9205;52.032;4.314;2024-03-25T09:30:45;8.60;1.00
18160;DHT22;9205;52.032;4.314;2024-03-25T09:33:12;8.60;1.00
18160;DHT22;9205;52.032;4.314;2024-03-25T09:35:39;8.60;1.00
18160;DHT22;9205;52.032;4.314;2024-03-25T09:38:05;8.50;1.00
18160;DHT22;9205;52.032;4.314;2024-03-25T09:40:32;8.50;1.00
18160;DHT22;9205;52.032;4.314;2024-03-25T09:43:02;8.70;1.00
18160;DHT22;9205;52.032;4.314;2024-03-25T09:45:29;8.60;1.00
18160;DHT22;9205;52.032;4.314;2024-03-25T09:47:58;8.70;1.00
18160;DHT22;9205;52.032;4.314;2024-03-25T09:50:26;8.70;1.00
18160;DHT22;9205;52.032;4.314;2024-03-25T09:52:52;8.80;1.00
18160;DHT22;9205;52.032;4.314;2024-03-25T09:55:18;8.60;1.00
18160;DHT22;9205;52.032;4.314;2024-03-25T09:57:46;8.70;1.00
18160;DHT22;9205;52.032;4.314;2024-03-25T10:00:13;8.80;1.00
18160;DHT22;9205;52.032;4.314;2024-03-25T10:02:42;8.80;99.90
18160;DHT22;9205;52.032;4.314;2024-03-25T10:05:09;8.70;99.90
18160;DHT22;9205;52.032;4.314;2024-03-25T10:07:36;8.70;79.10
18160;DHT22;9205;52.032;4.314;2024-03-25T10:10:04;8.80;1.00
18160;DHT22;9205;52.032;4.314;2024-03-25T10:12:31;9.00;1.00
18160;DHT22;9205;52.032;4.314;2024-03-25T10:14:58;9.10;1.00
18160;DHT22;9205;52.032;4.314;2024-03-25T10:17:24;9.10;1.00
18160;DHT22;9205;52.032;4.314;2024-03-25T10:19:53;9.20;1.00
18160;DHT22;9205;52.032;4.314;2024-03-25T10:22:19;9.20;99.90
18160;DHT22;9205;52.032;4.314;2024-03-25T10:24:47;9.40;99.90
18160;DHT22;9205;52.032;4.314;2024-03-25T10:27:18;9.40;99.90
18160;DHT22;9205;52.032;4.314;2024-03-25T10:29:46;9.40;99.90
18160;DHT22;9205;52.032;4.314;2024-03-25T10:32:13;9.50;1.00
18160;DHT22;9205;52.032;4.314;2024-03-25T10:34:40;9.60;1.00
18160;DHT22;9205;52.032;4.314;2024-03-25T10:37:09;9.80;1.00
18160;DHT22;9205;52.032;4.314;2024-03-25T10:39:39;9.80;1.00
18160;DHT22;9205;52.032;4.314;2024-03-25T10:42:16;9.90;99.90
18160;DHT22;9205;52.032;4.314;2024-03-25T10:44:45;9.90;99.90
18160;DHT22;9205;52.032;4.314;2024-03-25T10:47:17;10.10;99.90
18160;DHT22;9205;52.032;4.314;2024-03-25T10:49:49;10.10;1.00
18160;DHT22;9205;52.032;4.314;2024-03-25T10:52:18;10.10;1.00
18160;DHT22;9205;52.032;4.314;2024-03-25T10:54:47;10.30;1.00
18160;DHT22;9205;52.032;4.314;2024-03-25T10:57:15;10.30;1.00
18160;DHT22;9205;52.032;4.314;2024-03-25T10:59:43;10.40;1.00
18160;DHT22;9205;52.032;4.314;2024-03-25T11:02:09;10.30;1.00
18160;DHT22;9205;52.032;4.314;2024-03-25T11:04:37;10.30;1.00
18160;DHT22;9205;52.032;4.314;2024-03-25T11:07:08;10.50;99.90
18160;DHT22;9205;52.032;4.314;2024-03-25T11:09:34;10.60;99.90
18160;DHT22;9205;52.032;4.314;2024-03-25T11:12:02;10.70;99.90
18160;DHT22;9205;52.032;4.314;2024-03-25T11:14:30;10.70;99.90
18160;DHT22;9205;52.032;4.314;2024-03-25T11:16:58;10.80;99.90
18160;DHT22;9205;52.032;4.314;2024-03-25T11:19:26;10.70;99.90
18160;DHT22;9205;52.032;4.314;2024-03-25T11:21:53;10.70;1.00
18160;DHT22;9205;52.032;4.314;2024-03-25T11:24:27;10.90;1.00
18160;DHT22;9205;52.032;4.314;2024-03-25T11:26:54;10.80;1.00
18160;DHT22;9205;52.032;4.314;2024-03-25T11:29:21;11.10;1.00
18160;DHT22;9205;52.032;4.314;2024-03-25T11:31:50;11.30;1.00
18160;DHT22;9205;52.032;4.314;2024-03-25T11:34:18;11.40;1.00
18160;DHT22;9205;52.032;4.314;2024-03-25T11:36:45;11.50;99.90
18160;DHT22;9205;52.032;4.314;2024-03-25T11:39:12;11.70;99.90
18160;DHT22;9205;52.032;4.314;2024-03-25T11:41:39;11.70;1.00
18160;DHT22;9205;52.032;4.314;2024-03-25T11:44:08;11.70;1.00
18160;DHT22;9205;52.032;4.314;2024-03-25T11:46:36;11.70;1.00
18160;DHT22;9205;52.032;4.314;2024-03-25T11:49:06;11.70;1.00
18160;DHT22;9205;52.032;4.314;2024-03-25T11:51:34;11.80;1.00
18160;DHT22;9205;52.032;4.314;2024-03-25T11:54:03;11.70;1.00
18160;DHT22;9205;52.032;4.314;2024-03-25T11:56:30;11.90;99.90
18160;DHT22;9205;52.032;4.314;2024-03-25T11:58:58;12.00;99.90
18160;DHT22;9205;52.032;4.314;2024-03-25T12:01:25;11.90;99.90
18160;DHT22;9205;52.032;4.314;2024-03-25T12:03:52;12.00;99.90
18160;DHT22;9205;52.032;4.314;2024-03-25T12:06:20;12.10;71.10
18160;DHT22;9205;52.032;4.314;2024-03-25T12:08:46;12.20;23.30
18160;DHT22;9205;52.032;4.314;2024-03-25T12:11:27;12.20;49.40
18160;DHT22;9205;52.032;4.314;2024-03-25T12:13:54;12.20;1.00
18160;DHT22;9205;52.032;4.314;2024-03-25T12:16:21;12.30;1.00
18160;DHT22;9205;52.032;4.314;2024-03-25T12:18:47;12.10;1.00
18160;DHT22;9205;52.032;4.314;2024-03-25T12:21:15;12.10;1.00
18160;DHT22;9205;52.032;4.314;2024-03-25T12:23:45;12.50;1.00
18160;DHT22;9205;52.032;4.314;2024-03-25T12:26:13;12.60;1.00
18160;DHT22;9205;52.032;4.314;2024-03-25T12:28:40;12.50;1.00
18160;DHT22;9205;52.032;4.314;2024-03-25T12:31:09;12.70;1.00
18160;DHT22;9205;52.032;4.314;2024-03-25T12:33:40;12.70;1.00
18160;DHT22;9205;52.032;4.314;2024-03-25T12:36:07;12.80;1.00
18160;DHT22;9205;52.032;4.314;2024-03-25T12:38:33;12.70;1.00
18160;DHT22;9205;52.032;4.314;2024-03-25T12:41:07;12.70;1.00
18160;DHT22;9205;52.032;4.314;2024-03-25T12:43:35;12.40;1.00
18160;DHT22;9205;52.032;4.314;2024-03-25T12:46:07;12.20;1.00
18160;DHT22;9205;52.032;4.314;2024-03-25T12:48:34;12.00;1.00
18160;DHT22;9205;52.032;4.314;2024-03-25T12:51:00;12.00;1.00
18160;DHT22;9205;52.032;4.314;2024-03-25T12:53:27;12.20;1.00
18160;DHT22;9205;52.032;4.314;2024-03-25T12:55:56;12.20;1.00
18160;DHT22;9205;52.032;4.314;2024-03-25T12:58:23;12.10;1.00
18160;DHT22;9205;52.032;4.314;2024-03-25T13:00:50;12.10;1.00
18160;DHT22;9205;52.032;4.314;2024-03-25T13:03:16;12.10;1.00
18160;DHT22;9205;52.032;4.314;2024-03-25T13:05:44;12.20;1.00
18160;DHT22;9205;52.032;4.314;2024-03-25T13:08:10;12.30;1.00
18160;DHT22;9205;52.032;4.314;2024-03-25T13:10:36;12.10;1.00
18160;DHT22;9205;52.032;4.314;2024-03-25T13:13:04;12.10;1.00
18160;DHT22;9205;52.032;4.314;2024-03-25T13:15:32;12.00;1.00
18160;DHT22;9205;52.032;4.314;2024-03-25T13:17:59;12.10;1.00
18160;DHT22;9205;52.032;4.314;2024-03-25T13:20:26;12.10;1.00
18160;DHT22;9205;52.032;4.314;2024-03-25T13:22:54;12.10;1.00
18160;DHT22;9205;52.032;4.314;2024-03-25T13:25:21;12.10;1.00
18160;DHT22;9205;52.032;4.314;2024-03-25T13:27:47;12.10;1.00
18160;DHT22;9205;52.032;4.314;2024-03-25T13:30:14;12.10;1.00
18160;DHT22;9205;52.032;4.314;2024-03-25T13:32:42;12.30;1.00
18160;DHT22;9205;52.032;4.314;2024-03-25T13:35:08;12.50;1.00
18160;DHT22;9205;52.032;4.314;2024-03-25T13:37:35;12.60;1.00
18160;DHT22;9205;52.032;4.314;2024-03-25T13:40:01;12.50;1.00
18160;DHT22;9205;52.032;4.314;2024-03-25T13:42:27;12.60;1.00
18160;DHT22;9205;52.032;4.314;2024-03-25T13:44:54;12.60;99.90
18160;DHT22;9205;52.032;4.314;2024-03-25T13:47:20;12.90;99.90
18160;DHT22;9205;52.032;4.314;2024-03-25T13:49:48;12.80;99.90
18160;DHT22;9205;52.032;4.314;2024-03-25T13:52:14;12.80;99.90
18160;DHT22;9205;52.032;4.314;2024-03-25T13:54:40;12.90;99.90
18160;DHT22;9205;52.032;4.314;2024-03-25T13:57:07;13.30;99.90
18160;DHT22;9205;52.032;4.314;2024-03-25T13:59:33;13.30;68.80
18160;DHT22;9205;52.032;4.314;2024-03-25T14:01:59;13.40;31.00
18160;DHT22;9205;52.032;4.314;2024-03-25T14:04:25;13.30;1.00
18160;DHT22;9205;52.032;4.314;2024-03-25T14:06:53;13.10;1.00
18160;DHT22;9205;52.032;4.314;2024-03-25T14:09:26;12.80;1.00
18160;DHT22;9205;52.032;4.314;2024-03-25T14:11:52;12.70;1.00
18160;DHT22;9205;52.032;4.314;2024-03-25T14:14:19;12.60;1.00
18160;DHT22;9205;52.032;4.314;2024-03-25T14:16:45;12.50;1.00
18160;DHT22;9205;52.032;4.314;2024-03-25T14:19:12;12.30;1.00
18160;DHT22;9205;52.032;4.314;2024-03-25T14:21:38;12.20;1.00
18160;DHT22;9205;52.032;4.314;2024-03-25T14:24:07;12.20;1.00
18160;DHT22;9205;52.032;4.314;2024-03-25T14:26:33;12.40;1.00
18160;DHT22;9205;52.032;4.314;2024-03-25T14:29:00;12.80;1.00
18160;DHT22;9205;52.032;4.314;2024-03-25T14:31:26;12.90;1.00
18160;DHT22;9205;52.032;4.314;2024-03-25T14:33:53;12.80;1.00
18160;DHT22;9205;52.032;4.314;2024-03-25T14:36:20;12.70;1.00
18160;DHT22;9205;52.032;4.314;2024-03-25T14:38:47;12.80;1.00
18160;DHT22;9205;52.032;4.314;2024-03-25T14:41:19;12.90;1.00
18160;DHT22;9205;52.032;4.314;2024-03-25T14:43:46;13.00;1.00
18160;DHT22;9205;52.032;4.314;2024-03-25T14:46:13;13.20;1.00
18160;DHT22;9205;52.032;4.314;2024-03-25T14:48:40;13.20;1.00
18160;DHT22;9205;52.032;4.314;2024-03-25T14:51:06;13.00;1.00
18160;DHT22;9205;52.032;4.314;2024-03-25T14:53:32;12.90;1.00
18160;DHT22;9205;52.032;4.314;2024-03-25T14:55:59;12.70;1.00
18160;DHT22;9205;52.032;4.314;2024-03-25T14:58:26;12.60;1.00
18160;DHT22;9205;52.032;4.314;2024-03-25T15:00:53;12.50;1.00
18160;DHT22;9205;52.032;4.314;2024-03-25T15:03:19;12.50;1.00
18160;DHT22;9205;52.032;4.314;2024-03-25T15:05:45;12.50;1.00
18160;DHT22;9205;52.032;4.314;2024-03-25T15:08:12;12.40;1.00
18160;DHT22;9205;52.032;4.314;2024-03-25T15:10:38;12.30;1.00
18160;DHT22;9205;52.032;4.314;2024-03-25T15:13:05;12.30;1.00
18160;DHT22;9205;52.032;4.314;2024-03-25T15:15:32;12.30;1.00
18160;DHT22;9205;52.032;4.314;2024-03-25T15:17:59;12.30;1.00
18160;DHT22;9205;52.032;4.314;2024-03-25T15:20:28;12.30;1.00
18160;DHT22;9205;52.032;4.314;2024-03-25T15:22:54;12.30;1.00
18160;DHT22;9205;52.032;4.314;2024-03-25T15:25:21;12.30;1.00
18160;DHT22;9205;52.032;4.314;2024-03-25T15:27:47;12.30;1.00
18160;DHT22;9205;52.032;4.314;2024-03-25T15:30:13;12.40;1.00
18160;DHT22;9205;52.032;4.314;2024-03-25T15:32:41;12.50;1.00
18160;DHT22;9205;52.032;4.314;2024-03-25T15:35:08;12.60;1.00
18160;DHT22;9205;52.032;4.314;2024-03-25T15:37:34;12.50;1.00
18160;DHT22;9205;52.032;4.314;2024-03-25T15:40:01;12.50;1.00
18160;DHT22;9205;52.032;4.314;2024-03-25T15:42:27;12.50;1.00
18160;DHT22;9205;52.032;4.314;2024-03-25T15:44:53;12.40;1.00
18160;DHT22;9205;52.032;4.314;2024-03-25T15:47:19;12.40;1.00
18160;DHT22;9205;52.032;4.314;2024-03-25T15:49:47;12.40;1.00
18160;DHT22;9205;52.032;4.314;2024-03-25T15:52:14;12.20;1.00
18160;DHT22;9205;52.032;4.314;2024-03-25T15:54:40;12.20;1.00
18160;DHT22;9205;52.032;4.314;2024-03-25T15:57:07;12.20;1.00
18160;DHT22;9205;52.032;4.314;2024-03-25T15:59:33;12.20;1.00
18160;DHT22;9205;52.032;4.314;2024-03-25T16:02:00;12.20;1.00
18160;DHT22;9205;52.032;4.314;2024-03-25T16:04:26;12.20;1.00
18160;DHT22;9205;52.032;4.314;2024-03-25T16:06:54;12.10;1.00
18160;DHT22;9205;52.032;4.314;2024-03-25T16:09:21;12.10;1.00